sensor_id;sensor_type;location;lat;lon;timestamp;pressure;altitude;pressure_sealevel;temperature;humidity
49813;BME280;35706;52.100;5.056;2022-10-16T00:00:48;100971.31;;;13.27;80.29
49813;BME280;35706;52.100;5.056;2022-10-16T00:01:48;100969.41;;;13.29;80.35
49813;BME280;35706;52.100;5.056;2022-10-16T00:02:48;100983.03;;;13.24;80.14
49813;BME280;35706;52.100;5.056;2022-10-16T00:03:49;100973.19;;;13.16;80.53
49813;BME280;35706;52.100;5.056;2022-10-16T00:04:49;100974.50;;;13.12;80.51
49813;BME280;35706;52.100;5.056;2022-10-16T00:05:49;100969.47;;;13.19;80.64
49813;BME280;35706;52.100;5.056;2022-10-16T00:06:50;100982.47;;;13.20;80.35
49813;BME280;35706;52.100;5.056;2022-10-16T00:07:50;100968.84;;;13.25;80.21
49813;BME280;35706;52.100;5.056;2022-10-16T00:08:50;100976.00;;;13.15;80.48
49813;BME280;35706;52.100;5.056;2022-10-16T00:09:51;100983.25;;;13.13;80.42
49813;BME280;35706;52.100;5.056;2022-10-16T00:10:51;100976.69;;;13.17;80.52
49813;BME280;35706;52.100;5.056;2022-10-16T00:11:51;100982.78;;;13.17;80.59
49813;BME280;35706;52.100;5.056;2022-10-16T00:12:52;100977.75;;;13.24;80.18
49813;BME280;35706;52.100;5.056;2022-10-16T00:13:56;100972.94;;;13.37;79.83
49813;BME280;35706;52.100;5.056;2022-10-16T00:14:57;100976.56;;;13.36;79.78
49813;BME280;35706;52.100;5.056;2022-10-16T00:15:58;100961.28;;;13.40;79.55
49813;BME280;35706;52.100;5.056;2022-10-16T00:16:59;100965.69;;;13.39;79.18
49813;BME280;35706;52.100;5.056;2022-10-16T00:17:59;100967.97;;;13.34;79.34
49813;BME280;35706;52.100;5.056;2022-10-16T00:18:59;100977.72;;;13.34;79.65
49813;BME280;35706;52.100;5.056;2022-10-16T00:20:00;100971.25;;;13.18;80.11
49813;BME280;35706;52.100;5.056;2022-10-16T00:22:35;100977.75;;;13.24;79.92
49813;BME280;35706;52.100;5.056;2022-10-16T00:23:35;100960.25;;;13.23;80.00
49813;BME280;35706;52.100;5.056;2022-10-16T00:24:36;100969.16;;;13.22;79.99
49813;BME280;35706;52.100;5.056;2022-10-16T00:25:36;100961.03;;;13.33;79.64
49813;BME280;35706;52.100;5.056;2022-10-16T00:26:38;100965.91;;;13.28;79.75
49813;BME280;35706;52.100;5.056;2022-10-16T00:27:40;100961.75;;;13.26;80.12
49813;BME280;35706;52.100;5.056;2022-10-16T00:28:41;100962.97;;;13.31;80.06
49813;BME280;35706;52.100;5.056;2022-10-16T00:29:41;100959.44;;;13.40;79.33
49813;BME280;35706;52.100;5.056;2022-10-16T00:30:41;100960.41;;;13.39;79.42
49813;BME280;35706;52.100;5.056;2022-10-16T00:31:41;100959.59;;;13.39;79.57
49813;BME280;35706;52.100;5.056;2022-10-16T00:32:42;100947.91;;;13.41;79.44
49813;BME280;35706;52.100;5.056;2022-10-16T00:33:42;100954.47;;;13.55;79.11
49813;BME280;35706;52.100;5.056;2022-10-16T00:34:43;100954.53;;;13.46;79.32
49813;BME280;35706;52.100;5.056;2022-10-16T00:35:43;100944.28;;;13.42;79.75
49813;BME280;35706;52.100;5.056;2022-10-16T00:36:46;100953.41;;;13.48;79.33
49813;BME280;35706;52.100;5.056;2022-10-16T00:37:46;100963.28;;;13.46;79.66
49813;BME280;35706;52.100;5.056;2022-10-16T00:38:49;100961.09;;;13.41;79.57
49813;BME280;35706;52.100;5.056;2022-10-16T00:39:50;100973.19;;;13.44;79.81
49813;BME280;35706;52.100;5.056;2022-10-16T00:40:50;100964.19;;;13.37;80.04
49813;BME280;35706;52.100;5.056;2022-10-16T00:41:51;100970.97;;;13.39;79.88
49813;BME280;35706;52.100;5.056;2022-10-16T00:42:51;100976.47;;;13.28;80.51
49813;BME280;35706;52.100;5.056;2022-10-16T00:43:56;100963.25;;;13.28;80.77
49813;BME280;35706;52.100;5.056;2022-10-16T00:44:57;100999.34;;;13.37;80.24
49813;BME280;35706;52.100;5.056;2022-10-16T00:45:58;100973.78;;;13.38;80.13
49813;BME280;35706;52.100;5.056;2022-10-16T00:46:58;100969.63;;;13.35;80.40
49813;BME280;35706;52.100;5.056;2022-10-16T00:47:58;100976.44;;;13.38;80.49
49813;BME280;35706;52.100;5.056;2022-10-16T00:50:09;100977.53;;;13.35;80.69
49813;BME280;35706;52.100;5.056;2022-10-16T00:51:11;100980.56;;;13.40;80.55
49813;BME280;35706;52.100;5.056;2022-10-16T00:52:11;100984.03;;;13.41;80.61
49813;BME280;35706;52.100;5.056;2022-10-16T00:53:14;100970.28;;;13.37;80.66
49813;BME280;35706;52.100;5.056;2022-10-16T00:54:19;100993.19;;;13.47;80.31
49813;BME280;35706;52.100;5.056;2022-10-16T00:55:21;100987.13;;;13.36;80.70
49813;BME280;35706;52.100;5.056;2022-10-16T00:56:21;100981.53;;;13.39;80.64
49813;BME280;35706;52.100;5.056;2022-10-16T00:57:22;100992.63;;;13.43;80.47
49813;BME280;35706;52.100;5.056;2022-10-16T00:58:23;101004.34;;;13.40;80.92
49813;BME280;35706;52.100;5.056;2022-10-16T00:59:38;101011.88;;;13.35;81.05
49813;BME280;35706;52.100;5.056;2022-10-16T01:00:39;101005.31;;;13.39;81.11
49813;BME280;35706;52.100;5.056;2022-10-16T01:01:39;100991.13;;;13.40;80.97
49813;BME280;35706;52.100;5.056;2022-10-16T01:02:39;100977.47;;;13.45;80.32
49813;BME280;35706;52.100;5.056;2022-10-16T01:03:40;100979.28;;;13.44;80.95
49813;BME280;35706;52.100;5.056;2022-10-16T01:04:54;100977.41;;;13.37;81.55
49813;BME280;35706;52.100;5.056;2022-10-16T01:06:20;100980.66;;;13.49;81.29
49813;BME280;35706;52.100;5.056;2022-10-16T01:07:48;100981.13;;;13.44;81.46
49813;BME280;35706;52.100;5.056;2022-10-16T01:11:27;100993.78;;;13.40;81.75
49813;BME280;35706;52.100;5.056;2022-10-16T01:13:41;100975.22;;;13.32;82.37
49813;BME280;35706;52.100;5.056;2022-10-16T01:14:51;100984.94;;;13.32;82.57
49813;BME280;35706;52.100;5.056;2022-10-16T01:16:06;100979.97;;;13.29;82.60
49813;BME280;35706;52.100;5.056;2022-10-16T01:17:13;100984.53;;;13.27;82.71
49813;BME280;35706;52.100;5.056;2022-10-16T01:18:34;100993.28;;;13.27;82.92
49813;BME280;35706;52.100;5.056;2022-10-16T01:19:50;100985.31;;;13.37;82.54
49813;BME280;35706;52.100;5.056;2022-10-16T01:21:59;101002.84;;;13.28;82.98
49813;BME280;35706;52.100;5.056;2022-10-16T01:24:39;100974.97;;;13.26;83.53
49813;BME280;35706;52.100;5.056;2022-10-16T01:25:49;100974.69;;;13.29;83.39
49813;BME280;35706;52.100;5.056;2022-10-16T01:27:05;100999.94;;;13.31;83.18
49813;BME280;35706;52.100;5.056;2022-10-16T01:28:09;100976.84;;;13.33;83.32
49813;BME280;35706;52.100;5.056;2022-10-16T01:29:18;100964.13;;;13.29;83.64
49813;BME280;35706;52.100;5.056;2022-10-16T01:30:26;100951.69;;;13.39;83.40
49813;BME280;35706;52.100;5.056;2022-10-16T01:31:32;100961.94;;;13.42;83.60
49813;BME280;35706;52.100;5.056;2022-10-16T01:32:40;100924.00;;;13.43;83.64
49813;BME280;35706;52.100;5.056;2022-10-16T01:33:45;100934.41;;;13.44;83.95
49813;BME280;35706;52.100;5.056;2022-10-16T01:34:53;100927.78;;;13.40;84.43
49813;BME280;35706;52.100;5.056;2022-10-16T01:35:58;100913.97;;;13.47;84.33
49813;BME280;35706;52.100;5.056;2022-10-16T01:37:07;100920.59;;;13.51;83.90
49813;BME280;35706;52.100;5.056;2022-10-16T01:39:20;100917.06;;;13.42;85.02
49813;BME280;35706;52.100;5.056;2022-10-16T01:40:24;100941.50;;;13.44;84.86
49813;BME280;35706;52.100;5.056;2022-10-16T01:41:36;100933.66;;;13.34;85.33
49813;BME280;35706;52.100;5.056;2022-10-16T01:42:44;100931.69;;;13.36;85.70
49813;BME280;35706;52.100;5.056;2022-10-16T01:43:54;100941.88;;;13.31;85.86
49813;BME280;35706;52.100;5.056;2022-10-16T01:44:58;100935.84;;;13.39;85.43
49813;BME280;35706;52.100;5.056;2022-10-16T01:46:00;100950.19;;;13.36;85.17
49813;BME280;35706;52.100;5.056;2022-10-16T01:47:02;100950.47;;;13.33;85.41
49813;BME280;35706;52.100;5.056;2022-10-16T01:48:03;100953.56;;;13.29;85.72
49813;BME280;35706;52.100;5.056;2022-10-16T01:49:09;100959.06;;;13.35;85.55
49813;BME280;35706;52.100;5.056;2022-10-16T01:50:11;100943.63;;;13.40;85.31
49813;BME280;35706;52.100;5.056;2022-10-16T01:51:14;100961.03;;;13.33;85.54
49813;BME280;35706;52.100;5.056;2022-10-16T01:52:18;100963.25;;;13.28;85.56
49813;BME280;35706;52.100;5.056;2022-10-16T01:53:20;100969.13;;;13.32;85.53
49813;BME280;35706;52.100;5.056;2022-10-16T01:54:23;100960.19;;;13.33;85.38
49813;BME280;35706;52.100;5.056;2022-10-16T01:55:29;100963.38;;;13.36;85.34
49813;BME280;35706;52.100;5.056;2022-10-16T01:56:32;100964.72;;;13.40;85.23
49813;BME280;35706;52.100;5.056;2022-10-16T01:57:36;100970.00;;;13.40;85.18
49813;BME280;35706;52.100;5.056;2022-10-16T01:58:47;100968.66;;;13.36;85.32
49813;BME280;35706;52.100;5.056;2022-10-16T01:59:54;100970.38;;;13.28;85.93
49813;BME280;35706;52.100;5.056;2022-10-16T02:00:56;100966.75;;;13.29;85.99
49813;BME280;35706;52.100;5.056;2022-10-16T02:02:01;100966.28;;;13.33;85.96
49813;BME280;35706;52.100;5.056;2022-10-16T02:03:05;100977.53;;;13.35;85.50
49813;BME280;35706;52.100;5.056;2022-10-16T02:04:15;100971.06;;;13.30;85.81
49813;BME280;35706;52.100;5.056;2022-10-16T02:05:25;100966.84;;;13.37;85.35
49813;BME280;35706;52.100;5.056;2022-10-16T02:06:28;100961.63;;;13.27;85.93
49813;BME280;35706;52.100;5.056;2022-10-16T02:07:29;100969.94;;;13.32;85.61
49813;BME280;35706;52.100;5.056;2022-10-16T02:08:30;100961.19;;;13.32;85.72
49813;BME280;35706;52.100;5.056;2022-10-16T02:09:33;100988.41;;;13.32;85.41
49813;BME280;35706;52.100;5.056;2022-10-16T02:10:35;100991.34;;;13.29;85.87
49813;BME280;35706;52.100;5.056;2022-10-16T02:11:37;100977.31;;;13.29;85.88
49813;BME280;35706;52.100;5.056;2022-10-16T02:12:41;100970.81;;;13.23;86.27
49813;BME280;35706;52.100;5.056;2022-10-16T02:14:00;100969.81;;;13.24;86.23
49813;BME280;35706;52.100;5.056;2022-10-16T02:15:01;100976.25;;;13.21;86.09
49813;BME280;35706;52.100;5.056;2022-10-16T02:16:02;100967.63;;;13.19;86.22
49813;BME280;35706;52.100;5.056;2022-10-16T02:17:14;100977.50;;;13.17;86.59
49813;BME280;35706;52.100;5.056;2022-10-16T02:18:15;100970.13;;;13.21;86.39
49813;BME280;35706;52.100;5.056;2022-10-16T02:19:17;100976.28;;;13.12;86.70
49813;BME280;35706;52.100;5.056;2022-10-16T02:20:24;100980.59;;;13.13;86.71
49813;BME280;35706;52.100;5.056;2022-10-16T02:21:50;100983.47;;;13.19;86.73
49813;BME280;35706;52.100;5.056;2022-10-16T02:22:49;100987.97;;;13.09;86.86
49813;BME280;35706;52.100;5.056;2022-10-16T02:25:10;100997.81;;;13.17;86.65
49813;BME280;35706;52.100;5.056;2022-10-16T02:26:13;100988.97;;;13.08;86.92
49813;BME280;35706;52.100;5.056;2022-10-16T02:27:24;100993.94;;;13.11;86.68
49813;BME280;35706;52.100;5.056;2022-10-16T02:28:32;100981.44;;;13.13;86.84
49813;BME280;35706;52.100;5.056;2022-10-16T02:29:46;100992.06;;;13.21;86.28
49813;BME280;35706;52.100;5.056;2022-10-16T02:30:59;100993.91;;;13.21;86.52
49813;BME280;35706;52.100;5.056;2022-10-16T02:32:03;100989.56;;;13.20;86.17
49813;BME280;35706;52.100;5.056;2022-10-16T02:33:07;100991.44;;;13.10;86.69
49813;BME280;35706;52.100;5.056;2022-10-16T02:34:10;100991.63;;;13.08;86.98
49813;BME280;35706;52.100;5.056;2022-10-16T02:35:13;100993.72;;;13.22;86.53
49813;BME280;35706;52.100;5.056;2022-10-16T02:36:15;100997.22;;;13.23;86.33
49813;BME280;35706;52.100;5.056;2022-10-16T02:37:16;100993.03;;;13.20;86.21
49813;BME280;35706;52.100;5.056;2022-10-16T02:38:18;100995.06;;;13.09;86.79
49813;BME280;35706;52.100;5.056;2022-10-16T02:39:20;100995.53;;;13.04;87.18
49813;BME280;35706;52.100;5.056;2022-10-16T02:40:20;100999.69;;;13.07;86.97
49813;BME280;35706;52.100;5.056;2022-10-16T02:41:22;101005.31;;;13.12;86.85
49813;BME280;35706;52.100;5.056;2022-10-16T02:42:34;100995.31;;;13.15;86.66
49813;BME280;35706;52.100;5.056;2022-10-16T02:43:35;100995.66;;;13.02;87.27
49813;BME280;35706;52.100;5.056;2022-10-16T02:44:35;101014.97;;;13.03;87.60
49813;BME280;35706;52.100;5.056;2022-10-16T02:45:36;101007.44;;;13.08;87.09
49813;BME280;35706;52.100;5.056;2022-10-16T02:46:36;101003.13;;;13.07;87.08
49813;BME280;35706;52.100;5.056;2022-10-16T02:47:37;101011.19;;;13.06;87.44
49813;BME280;35706;52.100;5.056;2022-10-16T02:48:37;101001.63;;;13.04;87.57
49813;BME280;35706;52.100;5.056;2022-10-16T02:49:39;101002.00;;;13.10;87.43
49813;BME280;35706;52.100;5.056;2022-10-16T02:50:39;101000.28;;;13.18;87.15
49813;BME280;35706;52.100;5.056;2022-10-16T02:51:39;101007.69;;;13.15;87.40
49813;BME280;35706;52.100;5.056;2022-10-16T02:52:40;101002.84;;;13.10;87.42
49813;BME280;35706;52.100;5.056;2022-10-16T02:53:40;100997.34;;;13.21;86.80
49813;BME280;35706;52.100;5.056;2022-10-16T02:54:40;100993.72;;;13.22;86.61
49813;BME280;35706;52.100;5.056;2022-10-16T02:55:41;101004.44;;;13.21;86.77
49813;BME280;35706;52.100;5.056;2022-10-16T02:56:42;101008.88;;;13.20;86.88
49813;BME280;35706;52.100;5.056;2022-10-16T02:57:42;101005.63;;;13.09;87.21
49813;BME280;35706;52.100;5.056;2022-10-16T02:58:42;101011.19;;;13.06;87.70
49813;BME280;35706;52.100;5.056;2022-10-16T02:59:43;101004.88;;;13.16;87.39
49813;BME280;35706;52.100;5.056;2022-10-16T03:00:43;100992.75;;;13.23;86.89
49813;BME280;35706;52.100;5.056;2022-10-16T03:01:44;100992.81;;;13.14;87.29
49813;BME280;35706;52.100;5.056;2022-10-16T03:02:44;100988.53;;;13.13;87.75
49813;BME280;35706;52.100;5.056;2022-10-16T03:03:44;100992.00;;;13.13;87.36
49813;BME280;35706;52.100;5.056;2022-10-16T03:04:45;100991.47;;;13.28;87.38
49813;BME280;35706;52.100;5.056;2022-10-16T03:05:45;100986.84;;;13.12;87.56
49813;BME280;35706;52.100;5.056;2022-10-16T03:06:45;100982.03;;;13.07;87.78
49813;BME280;35706;52.100;5.056;2022-10-16T03:07:46;100994.09;;;13.10;87.87
49813;BME280;35706;52.100;5.056;2022-10-16T03:08:46;100984.53;;;13.09;87.95
49813;BME280;35706;52.100;5.056;2022-10-16T03:09:46;100989.22;;;13.15;87.56
49813;BME280;35706;52.100;5.056;2022-10-16T03:10:47;100979.09;;;13.10;87.78
49813;BME280;35706;52.100;5.056;2022-10-16T03:11:47;100973.16;;;13.08;87.74
49813;BME280;35706;52.100;5.056;2022-10-16T03:12:47;100979.78;;;13.12;87.86
49813;BME280;35706;52.100;5.056;2022-10-16T03:13:47;100983.53;;;13.10;87.68
49813;BME280;35706;52.100;5.056;2022-10-16T03:14:48;100983.94;;;13.15;87.43
49813;BME280;35706;52.100;5.056;2022-10-16T03:15:48;100982.56;;;13.11;87.75
49813;BME280;35706;52.100;5.056;2022-10-16T03:16:48;100985.88;;;13.13;87.82
49813;BME280;35706;52.100;5.056;2022-10-16T03:17:49;100981.66;;;13.20;87.35
49813;BME280;35706;52.100;5.056;2022-10-16T03:18:49;100981.13;;;13.16;87.58
49813;BME280;35706;52.100;5.056;2022-10-16T03:19:49;100980.84;;;13.19;87.59
49813;BME280;35706;52.100;5.056;2022-10-16T03:20:50;100992.75;;;13.23;87.25
49813;BME280;35706;52.100;5.056;2022-10-16T03:21:50;100989.22;;;13.15;87.42
49813;BME280;35706;52.100;5.056;2022-10-16T03:22:50;101001.50;;;13.06;87.88
49813;BME280;35706;52.100;5.056;2022-10-16T03:23:51;100987.75;;;13.02;88.40
49813;BME280;35706;52.100;5.056;2022-10-16T03:24:51;100993.84;;;13.03;88.17
49813;BME280;35706;52.100;5.056;2022-10-16T03:25:51;100995.66;;;13.02;88.25
49813;BME280;35706;52.100;5.056;2022-10-16T03:26:52;100998.75;;;12.98;88.75
49813;BME280;35706;52.100;5.056;2022-10-16T03:27:52;101007.50;;;12.98;88.75
49813;BME280;35706;52.100;5.056;2022-10-16T03:28:52;101013.72;;;12.97;88.77
49813;BME280;35706;52.100;5.056;2022-10-16T03:29:53;101011.63;;;13.01;88.56
49813;BME280;35706;52.100;5.056;2022-10-16T03:30:53;101001.09;;;13.01;88.65
49813;BME280;35706;52.100;5.056;2022-10-16T03:31:53;101023.03;;;13.01;88.52
49813;BME280;35706;52.100;5.056;2022-10-16T03:32:53;101013.72;;;12.97;88.94
49813;BME280;35706;52.100;5.056;2022-10-16T03:33:54;101015.66;;;13.05;88.62
49813;BME280;35706;52.100;5.056;2022-10-16T03:34:54;101015.78;;;13.03;88.56
49813;BME280;35706;52.100;5.056;2022-10-16T03:35:56;101014.19;;;12.93;88.98
49813;BME280;35706;52.100;5.056;2022-10-16T03:36:56;101013.16;;;13.03;88.56
49813;BME280;35706;52.100;5.056;2022-10-16T03:37:57;101021.97;;;12.94;88.91
49813;BME280;35706;52.100;5.056;2022-10-16T03:38:57;101023.44;;;13.07;88.42
49813;BME280;35706;52.100;5.056;2022-10-16T03:39:57;101031.34;;;13.07;88.32
49813;BME280;35706;52.100;5.056;2022-10-16T03:40:57;101022.75;;;13.04;88.41
49813;BME280;35706;52.100;5.056;2022-10-16T03:41:58;101019.28;;;13.04;88.37
49813;BME280;35706;52.100;5.056;2022-10-16T03:42:58;101031.25;;;12.98;88.71
49813;BME280;35706;52.100;5.056;2022-10-16T03:43:59;101014.34;;;12.91;89.07
49813;BME280;35706;52.100;5.056;2022-10-16T03:44:59;101029.28;;;13.00;88.78
49813;BME280;35706;52.100;5.056;2022-10-16T03:45:59;101021.50;;;12.99;88.59
49813;BME280;35706;52.100;5.056;2022-10-16T03:47:00;101028.16;;;13.03;88.39
49813;BME280;35706;52.100;5.056;2022-10-16T03:48:00;101037.09;;;12.92;89.04
49813;BME280;35706;52.100;5.056;2022-10-16T03:49:00;101029.31;;;12.91;89.18
49813;BME280;35706;52.100;5.056;2022-10-16T03:50:00;101027.38;;;12.93;89.26
49813;BME280;35706;52.100;5.056;2022-10-16T03:51:01;101031.16;;;12.90;89.06
49813;BME280;35706;52.100;5.056;2022-10-16T03:52:01;101031.69;;;12.94;89.01
49813;BME280;35706;52.100;5.056;2022-10-16T03:53:01;101024.63;;;12.84;89.55
49813;BME280;35706;52.100;5.056;2022-10-16T03:54:02;101028.94;;;12.86;89.49
49813;BME280;35706;52.100;5.056;2022-10-16T03:55:02;101031.28;;;12.89;89.55
49813;BME280;35706;52.100;5.056;2022-10-16T03:56:03;101035.19;;;12.84;89.64
49813;BME280;35706;52.100;5.056;2022-10-16T03:57:03;101038.47;;;12.96;89.50
49813;BME280;35706;52.100;5.056;2022-10-16T03:58:03;101035.47;;;12.91;89.57
49813;BME280;35706;52.100;5.056;2022-10-16T03:59:03;101039.38;;;12.87;89.51
49813;BME280;35706;52.100;5.056;2022-10-16T04:00:04;101042.81;;;12.88;89.56
49813;BME280;35706;52.100;5.056;2022-10-16T04:01:05;101045.91;;;12.83;89.76
49813;BME280;35706;52.100;5.056;2022-10-16T04:02:05;101041.44;;;12.83;89.87
49813;BME280;35706;52.100;5.056;2022-10-16T04:03:05;101040.91;;;12.80;89.74
49813;BME280;35706;52.100;5.056;2022-10-16T04:04:05;101042.97;;;12.86;89.79
49813;BME280;35706;52.100;5.056;2022-10-16T04:05:06;101051.81;;;12.95;89.30
49813;BME280;35706;52.100;5.056;2022-10-16T04:06:06;101040.44;;;12.94;89.25
49813;BME280;35706;52.100;5.056;2022-10-16T04:07:07;101042.81;;;12.88;89.71
49813;BME280;35706;52.100;5.056;2022-10-16T04:08:07;101043.28;;;12.83;89.81
49813;BME280;35706;52.100;5.056;2022-10-16T04:09:07;101049.06;;;12.87;89.67
49813;BME280;35706;52.100;5.056;2022-10-16T04:10:08;101043.41;;;12.81;89.87
49813;BME280;35706;52.100;5.056;2022-10-16T04:11:08;101047.97;;;12.89;89.75
49813;BME280;35706;52.100;5.056;2022-10-16T04:12:08;101050.63;;;12.79;90.16
49813;BME280;35706;52.100;5.056;2022-10-16T04:13:09;101051.63;;;12.78;90.23
49813;BME280;35706;52.100;5.056;2022-10-16T04:14:09;101057.72;;;12.79;90.26
49813;BME280;35706;52.100;5.056;2022-10-16T04:15:14;101060.47;;;12.87;89.79
49813;BME280;35706;52.100;5.056;2022-10-16T04:16:17;101053.97;;;12.81;90.20
49813;BME280;35706;52.100;5.056;2022-10-16T04:17:17;101060.88;;;12.82;89.84
49813;BME280;35706;52.100;5.056;2022-10-16T04:18:18;101061.28;;;12.88;89.83
49813;BME280;35706;52.100;5.056;2022-10-16T04:19:18;101055.72;;;12.91;89.92
49813;BME280;35706;52.100;5.056;2022-10-16T04:20:18;101068.22;;;12.89;89.73
49813;BME280;35706;52.100;5.056;2022-10-16T04:21:19;101069.22;;;12.88;89.86
49813;BME280;35706;52.100;5.056;2022-10-16T04:22:19;101057.50;;;13.00;89.11
49813;BME280;35706;52.100;5.056;2022-10-16T04:23:20;101067.81;;;12.93;89.58
49813;BME280;35706;52.100;5.056;2022-10-16T04:24:20;101069.06;;;12.89;89.83
49813;BME280;35706;52.100;5.056;2022-10-16T04:25:20;101063.97;;;12.78;90.30
49813;BME280;35706;52.100;5.056;2022-10-16T04:26:20;101066.72;;;12.86;90.03
49813;BME280;35706;52.100;5.056;2022-10-16T04:27:21;101064.38;;;12.83;89.99
49813;BME280;35706;52.100;5.056;2022-10-16T04:28:23;101067.13;;;12.91;89.70
49813;BME280;35706;52.100;5.056;2022-10-16T04:29:26;101068.06;;;12.90;89.78
49813;BME280;35706;52.100;5.056;2022-10-16T04:30:26;101075.03;;;12.91;89.88
49813;BME280;35706;52.100;5.056;2022-10-16T04:31:27;101068.66;;;12.84;90.07
49813;BME280;35706;52.100;5.056;2022-10-16T04:32:27;101083.78;;;12.82;90.29
49813;BME280;35706;52.100;5.056;2022-10-16T04:33:27;101074.47;;;12.88;89.97
49813;BME280;35706;52.100;5.056;2022-10-16T04:34:28;101077.94;;;12.88;90.04
49813;BME280;35706;52.100;5.056;2022-10-16T04:35:28;101082.84;;;12.83;90.20
49813;BME280;35706;52.100;5.056;2022-10-16T04:36:28;101080.78;;;12.77;90.62
49813;BME280;35706;52.100;5.056;2022-10-16T04:37:28;101093.28;;;12.75;90.78
49813;BME280;35706;52.100;5.056;2022-10-16T04:38:29;101086.19;;;12.75;90.92
49813;BME280;35706;52.100;5.056;2022-10-16T04:39:29;101087.19;;;12.74;90.83
49813;BME280;35706;52.100;5.056;2022-10-16T04:40:30;101095.34;;;12.71;91.14
49813;BME280;35706;52.100;5.056;2022-10-16T04:41:32;101086.06;;;12.67;91.39
49813;BME280;35706;52.100;5.056;2022-10-16T04:42:33;101092.16;;;12.68;91.50
49813;BME280;35706;52.100;5.056;2022-10-16T04:43:33;101092.16;;;12.68;91.28
49813;BME280;35706;52.100;5.056;2022-10-16T04:44:34;101087.56;;;12.79;90.52
49813;BME280;35706;52.100;5.056;2022-10-16T04:45:34;101092.44;;;12.74;90.92
49813;BME280;35706;52.100;5.056;2022-10-16T04:46:37;101097.19;;;12.71;91.26
49813;BME280;35706;52.100;5.056;2022-10-16T04:47:37;101089.94;;;12.73;90.98
49813;BME280;35706;52.100;5.056;2022-10-16T04:48:37;101081.50;;;12.69;91.21
49813;BME280;35706;52.100;5.056;2022-10-16T04:49:38;101086.22;;;12.66;91.36
49813;BME280;35706;52.100;5.056;2022-10-16T04:50:38;101088.28;;;12.72;91.18
49813;BME280;35706;52.100;5.056;2022-10-16T04:51:38;101093.16;;;12.67;91.22
49813;BME280;35706;52.100;5.056;2022-10-16T04:52:39;101092.84;;;12.70;91.24
49813;BME280;35706;52.100;5.056;2022-10-16T04:53:39;101100.19;;;12.76;90.90
49813;BME280;35706;52.100;5.056;2022-10-16T04:54:39;101090.63;;;12.75;90.87
49813;BME280;35706;52.100;5.056;2022-10-16T04:55:41;101092.03;;;12.69;91.33
49813;BME280;35706;52.100;5.056;2022-10-16T04:56:41;101099.63;;;12.82;90.82
49813;BME280;35706;52.100;5.056;2022-10-16T04:57:47;101103.97;;;12.73;90.88
49813;BME280;35706;52.100;5.056;2022-10-16T04:58:47;101107.16;;;12.77;90.88
49813;BME280;35706;52.100;5.056;2022-10-16T04:59:48;101107.41;;;12.74;90.77
49813;BME280;35706;52.100;5.056;2022-10-16T05:00:48;101117.13;;;12.83;90.64
49813;BME280;35706;52.100;5.056;2022-10-16T05:01:49;101129.47;;;12.82;90.62
49813;BME280;35706;52.100;5.056;2022-10-16T05:02:50;101114.38;;;12.75;90.93
49813;BME280;35706;52.100;5.056;2022-10-16T05:03:50;101118.84;;;12.65;91.38
49813;BME280;35706;52.100;5.056;2022-10-16T05:04:51;101129.00;;;12.59;91.88
49813;BME280;35706;52.100;5.056;2022-10-16T05:05:52;101128.56;;;12.64;91.61
49813;BME280;35706;52.100;5.056;2022-10-16T05:06:52;101136.03;;;12.69;91.19
49813;BME280;35706;52.100;5.056;2022-10-16T05:07:53;101129.69;;;12.61;91.65
49813;BME280;35706;52.100;5.056;2022-10-16T05:08:53;101133.59;;;12.57;92.08
49813;BME280;35706;52.100;5.056;2022-10-16T05:09:54;101142.00;;;12.71;91.15
49813;BME280;35706;52.100;5.056;2022-10-16T05:10:54;101141.75;;;12.64;91.57
49813;BME280;35706;52.100;5.056;2022-10-16T05:11:54;101139.38;;;12.71;91.41
49813;BME280;35706;52.100;5.056;2022-10-16T05:12:54;101135.63;;;12.63;91.52
49813;BME280;35706;52.100;5.056;2022-10-16T05:13:55;101145.09;;;12.56;91.87
49813;BME280;35706;52.100;5.056;2022-10-16T05:14:55;101134.69;;;12.55;91.97
49813;BME280;35706;52.100;5.056;2022-10-16T05:15:58;101133.53;;;12.67;91.67
49813;BME280;35706;52.100;5.056;2022-10-16T05:16:59;101136.03;;;12.69;91.22
49813;BME280;35706;52.100;5.056;2022-10-16T05:17:59;101134.41;;;12.58;91.90
49813;BME280;35706;52.100;5.056;2022-10-16T05:19:07;101131.19;;;12.64;91.58
49813;BME280;35706;52.100;5.056;2022-10-16T05:20:07;101145.66;;;12.60;91.96
49813;BME280;35706;52.100;5.056;2022-10-16T05:21:08;101153.28;;;12.53;92.05
49813;BME280;35706;52.100;5.056;2022-10-16T05:22:08;101149.97;;;12.51;92.35
49813;BME280;35706;52.100;5.056;2022-10-16T05:23:09;101149.09;;;12.60;91.92
49813;BME280;35706;52.100;5.056;2022-10-16T05:24:10;101150.22;;;12.58;92.07
49813;BME280;35706;52.100;5.056;2022-10-16T05:25:10;101161.03;;;12.55;92.17
49813;BME280;35706;52.100;5.056;2022-10-16T05:26:10;101155.50;;;12.48;92.50
49813;BME280;35706;52.100;5.056;2022-10-16T05:27:11;101151.06;;;12.58;92.06
49813;BME280;35706;52.100;5.056;2022-10-16T05:28:18;101151.44;;;12.63;91.81
49813;BME280;35706;52.100;5.056;2022-10-16T05:29:19;101145.22;;;12.55;92.20
49813;BME280;35706;52.100;5.056;2022-10-16T05:30:19;101155.38;;;12.50;92.45
49813;BME280;35706;52.100;5.056;2022-10-16T05:31:20;101153.56;;;12.50;92.45
49813;BME280;35706;52.100;5.056;2022-10-16T05:32:20;101159.94;;;12.48;92.57
49813;BME280;35706;52.100;5.056;2022-10-16T05:33:21;101161.59;;;12.49;92.73
49813;BME280;35706;52.100;5.056;2022-10-16T05:34:21;101161.47;;;12.50;92.63
49813;BME280;35706;52.100;5.056;2022-10-16T05:35:22;101164.25;;;12.49;92.75
49813;BME280;35706;52.100;5.056;2022-10-16T05:36:22;101164.84;;;12.42;93.13
49813;BME280;35706;52.100;5.056;2022-10-16T05:37:22;101171.88;;;12.42;93.06